Time,TemperatureF,DewpointF,PressureIn,WindDirection,WindDirectionDegrees,WindSpeedMPH,WindSpeedGustMPH,Humidity,HourlyPrecipIn,Conditions,Clouds,dailyrainin,SoftwareType,DateUTC
2013-02-22 00:00:00,23.7,10.2,29.64,ESE,112,0.0,5.8,56,0.00,,,0.00,WUHU21623XXSP,2013-02-22 05:00:00,
2013-02-22 00:05:00,23.7,10.2,29.64,ESE,112,0.0,0.0,56,0.00,,,0.00,WUHU21623XXSP,2013-02-22 05:05:00,
2013-02-22 00:10:00,23.7,10.2,29.65,ESE,112,0.0,0.0,56,0.00,,,0.00,WUHU21623XXSP,2013-02-22 05:10:00,
2013-02-22 00:15:00,23.5,10.5,29.64,NE,45,0.0,3.6,57,0.00,,,0.00,WUHU21623XXSP,2013-02-22 05:15:00,
2013-02-22 00:20:00,23.5,10.5,29.63,East,90,0.0,7.6,57,0.00,,,0.00,WUHU21623XXSP,2013-02-22 05:20:00,
2013-02-22 00:25:00,23.5,10.5,29.63,SE,135,1.6,7.6,57,0.00,,,0.00,WUHU21623XXSP,2013-02-22 05:25:00,
2013-02-22 00:30:00,23.5,10.5,29.63,ESE,112,0.9,1.6,57,0.00,,,0.00,WUHU21623XXSP,2013-02-22 05:30:00,
2013-02-22 00:35:00,23.7,11.0,29.63,ESE,112,1.6,1.6,58,0.00,,,0.00,WUHU21623XXSP,2013-02-22 05:35:00,
2013-02-22 00:40:00,23.7,11.0,29.63,ENE,67,0.0,1.6,58,0.00,,,0.00,WUHU21623XXSP,2013-02-22 05:40:00,
2013-02-22 00:45:00,23.7,11.0,29.64,ESE,112,3.4,3.4,58,0.00,,,0.00,WUHU21623XXSP,2013-02-22 05:45:00,
2013-02-22 00:50:00,23.7,11.0,29.63,ESE,112,4.3,7.8,58,0.00,,,0.00,WUHU21623XXSP,2013-02-22 05:50:00,
2013-02-22 00:55:00,23.4,10.7,29.62,SE,135,3.6,7.8,58,0.00,,,0.00,WUHU21623XXSP,2013-02-22 05:55:00,
2013-02-22 01:00:00,23.2,10.1,29.62,SE,135,4.5,4.5,57,0.00,,,0.00,WUHU21623XXSP,2013-02-22 06:00:00,
2013-02-22 01:05:00,23.2,10.1,29.62,SE,135,4.5,4.5,57,0.00,,,0.00,WUHU21623XXSP,2013-02-22 06:05:00,
2013-02-22 01:10:00,23.2,10.1,29.62,SE,135,4.5,4.5,57,0.00,,,0.00,WUHU21623XXSP,2013-02-22 06:10:00,
2013-02-22 01:15:00,23.0,10.3,29.64,ESE,112,0.0,4.5,58,0.00,,,0.00,WUHU21623XXSP,2013-02-22 06:15:00,
2013-02-22 01:20:00,22.8,10.1,29.64,ESE,112,0.0,4.0,58,0.00,,,0.00,WUHU21623XXSP,2013-02-22 06:20:00,
2013-02-22 01:25:00,22.8,10.1,29.65,ESE,112,3.1,3.1,58,0.00,,,0.00,WUHU21623XXSP,2013-02-22 06:25:00,
2013-02-22 01:30:00,22.6,10.0,29.65,East,90,5.4,5.4,58,0.00,,,0.00,WUHU21623XXSP,2013-02-22 06:30:00,
2013-02-22 01:35:00,22.6,10.0,29.64,East,90,0.0,5.4,58,0.00,,,0.00,WUHU21623XXSP,2013-02-22 06:35:00,
2013-02-22 01:40:00,22.6,10.0,29.63,ENE,67,0.0,5.4,58,0.00,,,0.00,WUHU21623XXSP,2013-02-22 06:40:00,
2013-02-22 01:45:00,22.8,10.1,29.63,ESE,112,0.0,6.7,58,0.00,,,0.00,WUHU21623XXSP,2013-02-22 06:45:00,
2013-02-22 01:50:00,22.6,10.0,29.63,East,90,5.4,6.7,58,0.00,,,0.00,WUHU21623XXSP,2013-02-22 06:50:00,
2013-02-22 01:55:00,22.8,10.1,29.63,SE,135,0.0,5.4,58,0.00,,,0.00,WUHU21623XXSP,2013-02-22 06:55:00,
2013-02-22 02:00:00,22.6,10.0,29.63,East,90,0.0,0.0,58,0.00,,,0.00,WUHU21623XXSP,2013-02-22 07:00:00,
2013-02-22 02:05:00,22.8,10.1,29.63,East,90,0.0,0.0,58,0.00,,,0.00,WUHU21623XXSP,2013-02-22 07:05:00,
2013-02-22 02:10:00,22.8,10.1,29.63,ESE,112,0.0,0.0,58,0.00,,,0.00,WUHU21623XXSP,2013-02-22 07:10:00,
2013-02-22 02:15:00,22.8,10.1,29.63,ESE,112,6.3,6.3,58,0.00,,,0.00,WUHU21623XXSP,2013-02-22 07:15:00,
2013-02-22 02:20:00,22.8,9.8,29.63,East,90,6.0,6.3,57,0.00,,,0.00,WUHU21623XXSP,2013-02-22 07:20:00,
2013-02-22 02:25:00,22.6,9.6,29.62,ESE,112,0.0,6.0,57,0.00,,,0.00,WUHU21623XXSP,2013-02-22 07:25:00,
2013-02-22 02:30:00,22.8,9.8,29.62,ESE,112,5.6,5.6,57,0.00,,,0.00,WUHU21623XXSP,2013-02-22 07:30:00,
2013-02-22 02:35:00,22.6,9.6,29.61,ENE,67,4.5,5.6,57,0.00,,,0.00,WUHU21623XXSP,2013-02-22 07:35:00,
2013-02-22 02:40:00,22.6,9.6,29.61,ESE,112,0.0,4.5,57,0.00,,,0.00,WUHU21623XXSP,2013-02-22 07:40:00,
2013-02-22 02:45:00,22.5,9.4,29.61,SE,135,0.0,5.6,57,0.00,,,0.00,WUHU21623XXSP,2013-02-22 07:45:00,
2013-02-22 02:50:00,22.5,9.4,29.60,East,90,4.3,5.6,57,0.00,,,0.00,WUHU21623XXSP,2013-02-22 07:50:00,
2013-02-22 02:55:00,22.5,9.4,29.60,ESE,112,0.0,4.9,57,0.00,,,0.00,WUHU21623XXSP,2013-02-22 07:55:00,
2013-02-22 03:00:00,22.5,9.8,29.60,East,90,1.1,5.6,58,0.00,,,0.00,WUHU21623XXSP,2013-02-22 08:00:00,
2013-02-22 03:05:00,22.5,9.8,29.60,East,90,6.0,6.0,58,0.00,,,0.00,WUHU21623XXSP,2013-02-22 08:05:00,
2013-02-22 03:10:00,22.5,9.8,29.60,ESE,112,0.0,6.0,58,0.00,,,0.00,WUHU21623XXSP,2013-02-22 08:10:00,
2013-02-22 03:15:00,22.5,9.8,29.60,East,90,0.0,2.9,58,0.00,,,0.00,WUHU21623XXSP,2013-02-22 08:15:00,
2013-02-22 03:20:00,22.6,10.0,29.58,East,90,2.7,2.9,58,0.00,,,0.00,WUHU21623XXSP,2013-02-22 08:20:00,
2013-02-22 03:25:00,22.6,10.0,29.58,ESE,112,3.4,3.4,58,0.00,,,0.00,WUHU21623XXSP,2013-02-22 08:25:00,
2013-02-22 03:30:00,22.5,9.8,29.58,East,90,0.0,3.4,58,0.00,,,0.00,WUHU21623XXSP,2013-02-22 08:30:00,
2013-02-22 03:35:00,22.5,9.8,29.57,ENE,67,0.0,7.2,58,0.00,,,0.00,WUHU21623XXSP,2013-02-22 08:35:00,
2013-02-22 03:40:00,22.3,9.7,29.57,East,90,0.0,7.2,58,0.00,,,0.00,WUHU21623XXSP,2013-02-22 08:40:00,
2013-02-22 03:45:00,22.3,9.7,29.56,ESE,112,3.6,6.0,58,0.00,,,0.00,WUHU21623XXSP,2013-02-22 08:45:00,
2013-02-22 03:50:00,22.3,9.7,29.55,East,90,6.9,6.9,58,0.00,,,0.00,WUHU21623XXSP,2013-02-22 08:50:00,
2013-02-22 03:55:00,22.3,9.7,29.55,ENE,67,3.4,6.9,58,0.00,,,0.00,WUHU21623XXSP,2013-02-22 08:55:00,
2013-02-22 04:00:00,22.3,9.7,29.54,East,90,0.0,8.7,58,0.00,,,0.00,WUHU21623XXSP,2013-02-22 09:00:00,
2013-02-22 04:05:00,22.3,10.1,29.54,East,90,5.1,8.7,59,0.00,,,0.00,WUHU21623XXSP,2013-02-22 09:05:00,
2013-02-22 04:10:00,22.3,10.1,29.53,East,90,0.0,7.4,59,0.00,,,0.00,WUHU21623XXSP,2013-02-22 09:10:00,
2013-02-22 04:15:00,22.3,10.1,29.52,SE,135,2.2,7.4,59,0.00,,,0.00,WUHU21623XXSP,2013-02-22 09:15:00,
2013-02-22 04:20:00,22.3,10.1,29.52,ESE,112,2.0,6.0,59,0.00,,,0.00,WUHU21623XXSP,2013-02-22 09:20:00,
2013-02-22 04:25:00,22.3,10.1,29.52,East,90,4.0,8.1,59,0.00,,,0.00,WUHU21623XXSP,2013-02-22 09:25:00,
2013-02-22 04:30:00,22.3,10.5,29.52,ESE,112,1.8,8.1,60,0.00,,,0.00,WUHU21623XXSP,2013-02-22 09:30:00,
2013-02-22 04:35:00,22.5,10.6,29.51,East,90,3.1,9.8,60,0.00,,,0.00,WUHU21623XXSP,2013-02-22 09:35:00,
2013-02-22 04:40:00,22.5,10.6,29.50,ENE,67,0.0,9.8,60,0.00,,,0.00,WUHU21623XXSP,2013-02-22 09:40:00,
2013-02-22 04:45:00,22.5,10.6,29.50,East,90,2.9,7.8,60,0.00,,,0.00,WUHU21623XXSP,2013-02-22 09:45:00,
2013-02-22 04:50:00,22.5,10.6,29.50,ESE,112,4.3,4.3,60,0.00,,,0.00,WUHU21623XXSP,2013-02-22 09:50:00,
2013-02-22 04:55:00,22.5,10.6,29.49,ESE,112,6.5,6.5,60,0.00,,,0.00,WUHU21623XXSP,2013-02-22 09:55:00,
2013-02-22 05:00:00,22.6,10.8,29.49,East,90,10.5,10.5,60,0.00,,,0.00,WUHU21623XXSP,2013-02-22 10:00:00,
2013-02-22 05:05:00,22.8,11.3,29.48,East,90,0.0,10.5,61,0.00,,,0.00,WUHU21623XXSP,2013-02-22 10:05:00,
2013-02-22 05:10:00,23.0,11.5,29.49,ENE,67,0.0,6.3,61,0.00,,,0.00,WUHU21623XXSP,2013-02-22 10:10:00,
2013-02-22 05:15:00,23.2,11.6,29.49,East,90,0.0,6.3,61,0.00,,,0.00,WUHU21623XXSP,2013-02-22 10:15:00,
2013-02-22 05:20:00,23.2,11.6,29.49,East,90,0.0,3.8,61,0.00,,,0.00,WUHU21623XXSP,2013-02-22 10:20:00,
2013-02-22 05:25:00,23.4,11.8,29.48,ENE,67,2.5,6.0,61,0.00,,,0.00,WUHU21623XXSP,2013-02-22 10:25:00,
2013-02-22 05:30:00,23.4,11.8,29.48,ENE,67,0.0,6.0,61,0.00,,,0.00,WUHU21623XXSP,2013-02-22 10:30:00,
2013-02-22 05:35:00,23.5,12.0,29.48,NE,45,4.3,7.4,61,0.00,,,0.00,WUHU21623XXSP,2013-02-22 10:35:00,
2013-02-22 05:40:00,23.4,11.8,29.47,ESE,112,0.0,8.1,61,0.00,,,0.00,WUHU21623XXSP,2013-02-22 10:40:00,
2013-02-22 05:45:00,23.4,11.8,29.48,East,90,0.0,8.1,61,0.00,,,0.00,WUHU21623XXSP,2013-02-22 10:45:00,
2013-02-22 05:50:00,23.5,12.0,29.48,ESE,112,4.9,8.9,61,0.00,,,0.00,WUHU21623XXSP,2013-02-22 10:50:00,
2013-02-22 05:55:00,23.5,12.0,29.47,ENE,67,5.1,8.9,61,0.00,,,0.00,WUHU21623XXSP,2013-02-22 10:55:00,
2013-02-22 06:00:00,23.5,12.4,29.47,East,90,1.3,6.0,62,0.00,,,0.00,WUHU21623XXSP,2013-02-22 11:00:00,
2013-02-22 06:05:00,23.7,12.5,29.47,ESE,112,0.0,5.1,62,0.00,,,0.00,WUHU21623XXSP,2013-02-22 11:05:00,
2013-02-22 06:10:00,23.7,12.5,29.47,ESE,112,6.7,6.9,62,0.00,,,0.00,WUHU21623XXSP,2013-02-22 11:10:00,
2013-02-22 06:15:00,23.9,12.7,29.48,SE,135,0.0,6.9,62,0.00,,,0.00,WUHU21623XXSP,2013-02-22 11:15:00,
2013-02-22 06:20:00,23.9,12.7,29.47,ESE,112,0.0,3.6,62,0.00,,,0.00,WUHU21623XXSP,2013-02-22 11:20:00,
2013-02-22 06:25:00,24.1,13.2,29.48,NE,45,0.0,5.8,63,0.00,,,0.00,WUHU21623XXSP,2013-02-22 11:25:00,
2013-02-22 06:30:00,24.3,13.4,29.48,SW,225,0.0,5.8,63,0.00,,,0.00,WUHU21623XXSP,2013-02-22 11:30:00,
2013-02-22 06:35:00,24.3,13.4,29.49,ESE,112,5.4,5.4,63,0.00,,,0.00,WUHU21623XXSP,2013-02-22 11:35:00,
2013-02-22 06:40:00,24.3,13.4,29.48,ESE,112,0.0,5.4,63,0.00,,,0.00,WUHU21623XXSP,2013-02-22 11:40:00,
2013-02-22 06:45:00,24.4,13.6,29.48,ESE,112,4.7,4.7,63,0.00,,,0.00,WUHU21623XXSP,2013-02-22 11:45:00,
2013-02-22 06:50:00,24.4,13.6,29.47,ESE,112,5.1,5.1,63,0.00,,,0.00,WUHU21623XXSP,2013-02-22 11:50:00,
2013-02-22 06:55:00,24.4,13.9,29.47,ESE,112,2.0,8.3,64,0.00,,,0.00,WUHU21623XXSP,2013-02-22 11:55:00,
2013-02-22 07:00:00,25.0,14.4,29.46,East,90,0.0,8.3,64,0.00,,,0.00,WUHU21623XXSP,2013-02-22 12:00:00,
2013-02-22 07:05:00,24.8,14.3,29.45,ENE,67,6.0,6.0,64,0.00,,,0.00,WUHU21623XXSP,2013-02-22 12:05:00,
2013-02-22 07:10:00,25.0,14.4,29.44,NE,45,5.4,6.0,64,0.00,,,0.00,WUHU21623XXSP,2013-02-22 12:10:00,
2013-02-22 07:15:00,25.0,14.4,29.44,ESE,112,5.8,6.3,64,0.00,,,0.00,WUHU21623XXSP,2013-02-22 12:15:00,
2013-02-22 07:20:00,25.0,14.4,29.42,NE,45,4.9,6.3,64,0.00,,,0.00,WUHU21623XXSP,2013-02-22 12:20:00,
2013-02-22 07:25:00,25.0,14.8,29.42,NE,45,4.0,5.6,65,0.00,,,0.00,WUHU21623XXSP,2013-02-22 12:25:00,
2013-02-22 07:30:00,25.0,14.8,29.42,East,90,5.1,8.1,65,0.00,,,0.00,WUHU21623XXSP,2013-02-22 12:30:00,
2013-02-22 07:35:00,25.0,14.8,29.44,ENE,67,6.3,8.1,65,0.00,,,0.00,WUHU21623XXSP,2013-02-22 12:35:00,
2013-02-22 07:40:00,25.0,14.8,29.44,SE,135,5.4,7.6,65,0.00,,,0.00,WUHU21623XXSP,2013-02-22 12:40:00,
2013-02-22 07:45:00,25.0,14.8,29.44,ESE,112,3.1,8.5,65,0.00,,,0.00,WUHU21623XXSP,2013-02-22 12:45:00,
2013-02-22 07:50:00,24.8,14.6,29.44,SE,135,1.3,8.5,65,0.00,,,0.00,WUHU21623XXSP,2013-02-22 12:50:00,
2013-02-22 07:55:00,25.0,14.8,29.44,East,90,6.7,6.7,65,0.00,,,0.00,WUHU21623XXSP,2013-02-22 12:55:00,
2013-02-22 08:00:00,25.0,14.8,29.44,ESE,112,6.0,6.7,65,0.00,,,0.00,WUHU21623XXSP,2013-02-22 13:00:00,
2013-02-22 08:05:00,25.0,15.1,29.42,NE,45,3.8,6.3,66,0.00,,,0.00,WUHU21623XXSP,2013-02-22 13:05:00,
2013-02-22 08:10:00,25.0,15.1,29.42,ESE,112,8.1,8.1,66,0.00,,,0.00,WUHU21623XXSP,2013-02-22 13:10:00,
2013-02-22 08:15:00,25.2,15.3,29.42,ESE,112,5.8,8.1,66,0.00,,,0.00,WUHU21623XXSP,2013-02-22 13:15:00,
2013-02-22 08:20:00,25.0,15.5,29.41,ESE,112,6.7,6.7,67,0.00,,,0.00,WUHU21623XXSP,2013-02-22 13:20:00,
2013-02-22 08:25:00,25.0,15.5,29.41,ESE,112,5.8,7.6,67,0.00,,,0.00,WUHU21623XXSP,2013-02-22 13:25:00,
2013-02-22 08:30:00,25.0,15.5,29.40,ENE,67,8.5,8.5,67,0.00,,,0.00,WUHU21623XXSP,2013-02-22 13:30:00,
2013-02-22 08:36:00,25.0,15.8,29.40,NE,45,5.6,8.5,68,0.00,,,0.00,WUHU21623XXSP,2013-02-22 13:36:00,
2013-02-22 08:41:00,25.0,15.8,29.39,ENE,67,5.1,5.6,68,0.00,,,0.00,WUHU21623XXSP,2013-02-22 13:41:00,
2013-02-22 08:46:00,25.0,15.8,29.40,East,90,4.0,5.6,68,0.00,,,0.00,WUHU21623XXSP,2013-02-22 13:46:00,
2013-02-22 08:51:00,25.0,15.8,29.40,East,90,1.8,4.0,68,0.00,,,0.00,WUHU21623XXSP,2013-02-22 13:51:00,
2013-02-22 08:56:00,25.2,16.3,29.40,ESE,112,0.0,7.4,69,0.00,,,0.00,WUHU21623XXSP,2013-02-22 13:56:00,
2013-02-22 09:01:00,25.2,16.3,29.40,SE,135,5.1,7.4,69,0.00,,,0.00,WUHU21623XXSP,2013-02-22 14:01:00,
2013-02-22 09:06:00,25.2,16.3,29.40,East,90,3.1,7.2,69,0.00,,,0.00,WUHU21623XXSP,2013-02-22 14:06:00,
2013-02-22 09:11:00,25.2,16.3,29.39,SE,135,5.4,7.2,69,0.00,,,0.00,WUHU21623XXSP,2013-02-22 14:11:00,
2013-02-22 09:16:00,25.2,16.7,29.39,East,90,8.5,8.5,70,0.00,,,0.00,WUHU21623XXSP,2013-02-22 14:16:00,
2013-02-22 09:21:00,25.5,17.1,29.39,ENE,67,6.0,8.5,70,0.00,,,0.00,WUHU21623XXSP,2013-02-22 14:21:00,
2013-02-22 09:26:00,25.3,16.9,29.39,East,90,8.1,8.1,70,0.00,,,0.00,WUHU21623XXSP,2013-02-22 14:26:00,
2013-02-22 09:31:00,25.5,17.1,29.38,East,90,0.0,8.1,70,0.00,,,0.00,WUHU21623XXSP,2013-02-22 14:31:00,
2013-02-22 09:36:00,25.7,17.2,29.39,East,90,6.0,6.0,70,0.00,,,0.00,WUHU21623XXSP,2013-02-22 14:36:00,
2013-02-22 09:41:00,25.9,17.7,29.39,ESE,112,4.3,6.0,71,0.00,,,0.00,WUHU21623XXSP,2013-02-22 14:41:00,
2013-02-22 09:46:00,26.1,17.9,29.39,ESE,112,0.0,4.3,71,0.00,,,0.00,WUHU21623XXSP,2013-02-22 14:46:00,
2013-02-22 09:51:00,26.8,18.6,29.38,ENE,67,0.0,5.4,71,0.00,,,0.00,WUHU21623XXSP,2013-02-22 14:51:00,
2013-02-22 09:57:00,27.1,19.3,29.38,ESE,112,0.0,5.4,72,0.00,,,0.00,WUHU21623XXSP,2013-02-22 14:57:00,
2013-02-22 10:02:00,27.1,19.3,29.38,SE,135,0.0,0.0,72,0.00,,,0.00,WUHU21623XXSP,2013-02-22 15:02:00,
2013-02-22 10:07:00,27.5,19.7,29.38,ESE,112,0.0,0.0,72,0.00,,,0.00,WUHU21623XXSP,2013-02-22 15:07:00,
2013-02-22 10:12:00,27.7,19.8,29.37,ESE,112,0.0,4.0,72,0.00,,,0.00,WUHU21623XXSP,2013-02-22 15:12:00,
2013-02-22 10:17:00,27.9,20.0,29.38,SE,135,0.0,4.0,72,0.00,,,0.00,WUHU21623XXSP,2013-02-22 15:17:00,
2013-02-22 10:22:00,28.2,20.4,29.37,East,90,0.9,0.9,72,0.00,,,0.00,WUHU21623XXSP,2013-02-22 15:22:00,
2013-02-22 10:27:00,28.6,20.7,29.37,East,90,3.4,3.4,72,0.00,,,0.00,WUHU21623XXSP,2013-02-22 15:27:00,
2013-02-22 10:32:00,28.6,20.7,29.37,SSE,157,0.0,3.6,72,0.00,,,0.00,WUHU21623XXSP,2013-02-22 15:32:00,
2013-02-22 10:37:00,28.6,20.4,29.36,East,90,0.0,5.4,71,0.00,,,0.00,WUHU21623XXSP,2013-02-22 15:37:00,
2013-02-22 10:42:00,28.9,20.7,29.36,ESE,112,0.0,5.4,71,0.00,,,0.00,WUHU21623XXSP,2013-02-22 15:42:00,
2013-02-22 10:47:00,29.3,21.4,29.35,ESE,112,0.0,9.2,72,0.00,,,0.00,WUHU21623XXSP,2013-02-22 15:47:00,
2013-02-22 10:52:00,29.8,21.9,29.35,ESE,112,3.6,9.2,72,0.00,,,0.00,WUHU21623XXSP,2013-02-22 15:52:00,
2013-02-22 10:57:00,30.4,22.1,29.34,East,90,0.0,6.9,71,0.00,,,0.00,WUHU21623XXSP,2013-02-22 15:57:00,
2013-02-22 11:02:00,30.6,22.2,29.34,East,90,7.2,7.2,71,0.00,,,0.00,WUHU21623XXSP,2013-02-22 16:02:00,
2013-02-22 11:07:00,30.9,22.6,29.34,ENE,67,3.4,7.2,71,0.00,,,0.00,WUHU21623XXSP,2013-02-22 16:07:00,
2013-02-22 11:12:00,31.1,22.5,29.34,ESE,112,8.3,8.3,70,0.00,,,0.00,WUHU21623XXSP,2013-02-22 16:12:00,
2013-02-22 11:17:00,31.5,22.8,29.34,ENE,67,2.5,8.3,70,0.00,,,0.00,WUHU21623XXSP,2013-02-22 16:17:00,
2013-02-22 11:21:00,31.6,22.6,29.34,East,90,6.9,6.9,69,0.00,,,0.00,WUHU21623XXSP,2013-02-22 16:21:00,
2013-02-22 11:26:00,31.6,22.6,29.33,NE,45,0.0,6.9,69,0.00,,,0.00,WUHU21623XXSP,2013-02-22 16:26:00,
2013-02-22 11:31:00,31.6,22.3,29.34,SE,135,0.0,6.0,68,0.00,,,0.00,WUHU21623XXSP,2013-02-22 16:31:00,
2013-02-22 11:36:00,31.8,22.5,29.33,East,90,0.0,6.0,68,0.00,,,0.00,WUHU21623XXSP,2013-02-22 16:36:00,
2013-02-22 11:41:00,31.6,21.9,29.33,ESE,112,4.9,4.9,67,0.00,,,0.00,WUHU21623XXSP,2013-02-22 16:41:00,
2013-02-22 11:46:00,31.6,21.9,29.33,ESE,112,4.0,4.9,67,0.00,,,0.00,WUHU21623XXSP,2013-02-22 16:46:00,
2013-02-22 11:51:00,31.5,21.4,29.33,ESE,112,0.0,4.5,66,0.00,,,0.00,WUHU21623XXSP,2013-02-22 16:51:00,
2013-02-22 11:56:00,31.6,21.6,29.33,SE,135,0.0,4.5,66,0.00,,,0.00,WUHU21623XXSP,2013-02-22 16:56:00,
2013-02-22 12:01:00,31.6,21.9,29.33,East,90,0.0,4.0,67,0.00,,,0.00,WUHU21623XXSP,2013-02-22 17:01:00,
2013-02-22 12:06:00,32.2,22.4,29.33,SSE,157,0.0,4.0,67,0.00,,,0.00,WUHU21623XXSP,2013-02-22 17:06:00,
2013-02-22 12:11:00,32.2,22.4,29.33,East,90,0.0,0.0,67,0.00,,,0.00,WUHU21623XXSP,2013-02-22 17:11:00,
2013-02-22 12:16:00,32.2,22.4,29.32,South,180,0.0,3.1,67,0.00,,,0.00,WUHU21623XXSP,2013-02-22 17:16:00,
2013-02-22 12:21:00,32.2,22.1,29.32,South,180,0.0,3.1,66,0.00,,,0.00,WUHU21623XXSP,2013-02-22 17:21:00,
2013-02-22 12:26:00,32.2,22.1,29.32,East,90,0.0,7.4,66,0.00,,,0.00,WUHU21623XXSP,2013-02-22 17:26:00,
2013-02-22 12:31:00,32.2,22.1,29.31,East,90,0.0,7.4,66,0.00,,,0.00,WUHU21623XXSP,2013-02-22 17:31:00,
2013-02-22 12:36:00,32.4,22.2,29.31,SE,135,0.0,4.7,66,0.00,,,0.00,WUHU21623XXSP,2013-02-22 17:36:00,
2013-02-22 12:41:00,32.4,22.6,29.31,ESE,112,0.0,0.0,67,0.00,,,0.00,WUHU21623XXSP,2013-02-22 17:41:00,
2013-02-22 12:46:00,32.7,22.9,29.31,ESE,112,3.1,3.1,67,0.00,,,0.00,WUHU21623XXSP,2013-02-22 17:46:00,
2013-02-22 12:51:00,32.7,22.9,29.31,SE,135,0.0,3.1,67,0.00,,,0.00,WUHU21623XXSP,2013-02-22 17:51:00,
2013-02-22 12:56:00,32.9,23.1,29.31,SE,135,0.0,0.0,67,0.00,,,0.00,WUHU21623XXSP,2013-02-22 17:56:00,
2013-02-22 13:01:00,32.9,23.1,29.31,SE,135,0.0,4.7,67,0.00,,,0.00,WUHU21623XXSP,2013-02-22 18:01:00,
2013-02-22 13:06:00,33.1,23.3,29.31,SE,135,0.0,4.7,67,0.00,,,0.00,WUHU21623XXSP,2013-02-22 18:06:00,
2013-02-22 13:11:00,32.9,23.1,29.30,SE,135,0.0,3.6,67,0.00,,,0.00,WUHU21623XXSP,2013-02-22 18:11:00,
2013-02-22 13:16:00,33.3,23.4,29.30,SE,135,0.0,0.0,67,0.00,,,0.00,WUHU21623XXSP,2013-02-22 18:16:00,
2013-02-22 13:21:00,33.4,23.6,29.30,SSE,157,0.0,0.0,67,0.00,,,0.00,WUHU21623XXSP,2013-02-22 18:21:00,
2013-02-22 13:26:00,33.4,23.6,29.30,SSE,157,5.4,5.4,67,0.00,,,0.00,WUHU21623XXSP,2013-02-22 18:26:00,
2013-02-22 13:31:00,33.4,23.6,29.29,SE,135,0.0,5.4,67,0.00,,,0.00,WUHU21623XXSP,2013-02-22 18:31:00,
2013-02-22 13:36:00,33.4,23.6,29.29,ESE,112,0.0,5.4,67,0.00,,,0.00,WUHU21623XXSP,2013-02-22 18:36:00,
2013-02-22 13:41:00,33.4,23.6,29.28,ESE,112,0.0,0.0,67,0.00,,,0.00,WUHU21623XXSP,2013-02-22 18:41:00,
2013-02-22 13:46:00,34.0,24.4,29.28,SE,135,0.0,1.6,68,0.00,,,0.00,WUHU21623XXSP,2013-02-22 18:46:00,
2013-02-22 13:51:00,33.8,24.3,29.28,SE,135,0.0,1.6,68,0.00,,,0.00,WUHU21623XXSP,2013-02-22 18:51:00,
2013-02-22 13:56:00,34.0,24.4,29.28,SE,135,6.0,6.0,68,0.00,,,0.00,WUHU21623XXSP,2013-02-22 18:56:00,
2013-02-22 14:01:00,34.2,24.6,29.28,SE,135,0.0,6.0,68,0.00,,,0.00,WUHU21623XXSP,2013-02-22 19:01:00,
2013-02-22 14:06:00,34.2,24.6,29.28,ESE,112,0.0,0.0,68,0.00,,,0.00,WUHU21623XXSP,2013-02-22 19:06:00,
2013-02-22 14:11:00,34.2,24.6,29.28,SSE,157,0.0,0.0,68,0.00,,,0.00,WUHU21623XXSP,2013-02-22 19:11:00,
2013-02-22 14:16:00,34.0,24.4,29.28,South,180,0.0,0.0,68,0.00,,,0.00,WUHU21623XXSP,2013-02-22 19:16:00,
2013-02-22 14:21:00,34.0,24.4,29.28,ESE,112,0.0,0.0,68,0.00,,,0.00,WUHU21623XXSP,2013-02-22 19:21:00,
2013-02-22 14:26:00,34.0,24.4,29.28,SSE,157,0.0,1.1,68,0.00,,,0.00,WUHU21623XXSP,2013-02-22 19:26:00,
2013-02-22 14:31:00,34.0,24.8,29.28,South,180,0.0,1.1,69,0.00,,,0.00,WUHU21623XXSP,2013-02-22 19:31:00,
2013-02-22 14:36:00,34.0,24.8,29.29,SSE,157,0.0,0.0,69,0.00,,,0.00,WUHU21623XXSP,2013-02-22 19:36:00,
2013-02-22 14:41:00,34.0,24.8,29.29,South,180,0.0,0.0,69,0.00,,,0.00,WUHU21623XXSP,2013-02-22 19:41:00,
2013-02-22 14:46:00,34.0,24.8,29.28,SE,135,0.0,0.0,69,0.00,,,0.00,WUHU21623XXSP,2013-02-22 19:46:00,
2013-02-22 14:51:00,34.0,24.8,29.28,SSE,157,0.0,0.0,69,0.00,,,0.00,WUHU21623XXSP,2013-02-22 19:51:00,
2013-02-22 14:56:00,34.0,24.8,29.28,ESE,112,0.0,0.0,69,0.00,,,0.00,WUHU21623XXSP,2013-02-22 19:56:00,
2013-02-22 15:01:00,34.0,24.8,29.28,SE,135,0.0,0.0,69,0.00,,,0.00,WUHU21623XXSP,2013-02-22 20:01:00,
2013-02-22 15:06:00,34.0,25.2,29.28,SE,135,0.0,0.0,70,0.00,,,0.00,WUHU21623XXSP,2013-02-22 20:06:00,
2013-02-22 15:11:00,34.0,25.2,29.28,East,90,0.0,0.0,70,0.00,,,0.00,WUHU21623XXSP,2013-02-22 20:11:00,
2013-02-22 15:16:00,34.3,25.5,29.28,SSE,157,0.0,0.0,70,0.00,,,0.00,WUHU21623XXSP,2013-02-22 20:16:00,
2013-02-22 15:21:00,34.3,25.5,29.28,SSE,157,0.0,0.0,70,0.00,,,0.00,WUHU21623XXSP,2013-02-22 20:21:00,
2013-02-22 15:26:00,34.2,25.3,29.28,South,180,0.0,0.0,70,0.00,,,0.00,WUHU21623XXSP,2013-02-22 20:26:00,
2013-02-22 15:31:00,34.2,25.3,29.28,South,180,0.0,0.0,70,0.00,,,0.00,WUHU21623XXSP,2013-02-22 20:31:00,
2013-02-22 15:36:00,34.2,25.3,29.28,SE,135,0.0,0.0,70,0.00,,,0.00,WUHU21623XXSP,2013-02-22 20:36:00,
2013-02-22 15:41:00,34.2,25.3,29.28,SSE,157,0.0,0.0,70,0.00,,,0.00,WUHU21623XXSP,2013-02-22 20:41:00,
2013-02-22 15:46:00,34.5,26.0,29.28,SSE,157,0.0,0.0,71,0.00,,,0.00,WUHU21623XXSP,2013-02-22 20:46:00,
2013-02-22 15:51:00,34.5,26.0,29.28,SSE,157,0.0,0.0,71,0.00,,,0.00,WUHU21623XXSP,2013-02-22 20:51:00,
2013-02-22 15:56:00,34.3,25.8,29.28,SSE,157,0.0,0.0,71,0.00,,,0.00,WUHU21623XXSP,2013-02-22 20:56:00,
2013-02-22 16:01:00,34.3,25.8,29.28,SSE,157,0.0,0.0,71,0.00,,,0.00,WUHU21623XXSP,2013-02-22 21:01:00,
2013-02-22 16:06:00,34.3,25.8,29.28,SSE,157,0.0,0.0,71,0.00,,,0.00,WUHU21623XXSP,2013-02-22 21:06:00,
2013-02-22 16:11:00,34.5,26.0,29.28,SSE,157,0.0,0.0,71,0.00,,,0.00,WUHU21623XXSP,2013-02-22 21:11:00,
2013-02-22 16:16:00,34.7,26.5,29.27,SE,135,0.0,0.0,72,0.00,,,0.00,WUHU21623XXSP,2013-02-22 21:16:00,
2013-02-22 16:21:00,35.1,26.9,29.27,SE,135,0.0,0.0,72,0.00,,,0.00,WUHU21623XXSP,2013-02-22 21:21:00,
2013-02-22 16:26:00,35.1,26.9,29.27,SE,135,0.0,0.0,72,0.00,,,0.00,WUHU21623XXSP,2013-02-22 21:26:00,
2013-02-22 16:31:00,35.1,26.9,29.27,SE,135,0.0,0.0,72,0.00,,,0.00,WUHU21623XXSP,2013-02-22 21:31:00,
2013-02-22 16:36:00,35.1,26.9,29.27,SE,135,0.0,0.0,72,0.00,,,0.00,WUHU21623XXSP,2013-02-22 21:36:00,
2013-02-22 16:41:00,35.1,26.9,29.27,SE,135,0.0,0.0,72,0.00,,,0.00,WUHU21623XXSP,2013-02-22 21:41:00,
2013-02-22 16:46:00,35.1,26.9,29.27,SE,135,0.0,0.0,72,0.00,,,0.00,WUHU21623XXSP,2013-02-22 21:46:00,
2013-02-22 16:51:00,35.1,26.9,29.27,SE,135,0.0,0.0,72,0.00,,,0.00,WUHU21623XXSP,2013-02-22 21:51:00,
2013-02-22 16:56:00,35.1,26.9,29.27,SE,135,0.0,0.0,72,0.00,,,0.00,WUHU21623XXSP,2013-02-22 21:56:00,
2013-02-22 17:01:00,35.1,26.9,29.27,SE,135,0.0,0.0,72,0.00,,,0.00,WUHU21623XXSP,2013-02-22 22:01:00,
2013-02-22 17:06:00,35.1,26.9,29.27,SE,135,0.0,0.0,72,0.00,,,0.00,WUHU21623XXSP,2013-02-22 22:06:00,
2013-02-22 17:11:00,35.1,26.9,29.27,SE,135,0.0,0.0,72,0.00,,,0.00,WUHU21623XXSP,2013-02-22 22:11:00,
2013-02-22 17:16:00,34.9,26.7,29.27,SE,135,0.0,0.0,72,0.00,,,0.00,WUHU21623XXSP,2013-02-22 22:16:00,
2013-02-22 17:21:00,35.1,26.9,29.27,SE,135,0.0,0.0,72,0.00,,,0.00,WUHU21623XXSP,2013-02-22 22:21:00,
2013-02-22 17:26:00,35.1,26.9,29.27,SE,135,0.0,0.0,72,0.00,,,0.00,WUHU21623XXSP,2013-02-22 22:26:00,
2013-02-22 17:31:00,34.9,26.7,29.27,SE,135,0.0,0.0,72,0.00,,,0.00,WUHU21623XXSP,2013-02-22 22:31:00,
2013-02-22 17:36:00,35.1,26.7,29.27,SE,135,0.0,0.0,72,0.00,,,0.00,WUHU21623XXSP,2013-02-22 22:36:00,
2013-02-22 17:41:00,35.1,26.9,29.27,SE,135,0.0,0.0,72,0.00,,,0.00,WUHU21623XXSP,2013-02-22 22:41:00,
2013-02-22 17:46:00,35.1,26.9,29.27,SE,135,0.0,0.0,72,0.00,,,0.00,WUHU21623XXSP,2013-02-22 22:46:00,
2013-02-22 17:51:00,35.2,27.1,29.27,SE,135,0.0,0.0,72,0.00,,,0.00,WUHU21623XXSP,2013-02-22 22:51:00,
2013-02-22 17:56:00,35.2,27.1,29.27,SE,135,0.0,0.0,72,0.00,,,0.00,WUHU21623XXSP,2013-02-22 22:56:00,
2013-02-22 18:01:00,35.2,27.1,29.27,SE,135,0.0,0.0,72,0.00,,,0.00,WUHU21623XXSP,2013-02-22 23:01:00,
2013-02-22 18:06:00,35.1,26.9,29.28,SE,135,0.0,0.0,72,0.00,,,0.00,WUHU21623XXSP,2013-02-22 23:06:00,
2013-02-22 18:11:00,35.1,26.9,29.27,SSE,157,0.0,0.0,72,0.00,,,0.00,WUHU21623XXSP,2013-02-22 23:11:00,
2013-02-22 18:16:00,34.9,26.7,29.27,SSE,157,0.0,0.0,72,0.00,,,0.00,WUHU21623XXSP,2013-02-22 23:16:00,
2013-02-22 18:21:00,34.7,26.5,29.27,SSE,157,0.0,0.0,72,0.00,,,0.00,WUHU21623XXSP,2013-02-22 23:21:00,
2013-02-22 18:26:00,34.5,26.3,29.28,South,180,0.0,0.0,72,0.00,,,0.00,WUHU21623XXSP,2013-02-22 23:26:00,
2013-02-22 18:31:00,34.3,26.5,29.28,SSE,157,0.0,0.0,73,0.00,,,0.00,WUHU21623XXSP,2013-02-22 23:31:00,
2013-02-22 18:36:00,34.3,26.5,29.28,SSE,157,0.0,0.0,73,0.00,,,0.00,WUHU21623XXSP,2013-02-22 23:36:00,
2013-02-22 18:41:00,34.2,26.3,29.28,South,180,0.0,0.0,73,0.00,,,0.00,WUHU21623XXSP,2013-02-22 23:41:00,
2013-02-22 18:46:00,34.0,26.1,29.27,South,180,0.0,0.0,73,0.00,,,0.00,WUHU21623XXSP,2013-02-22 23:46:00,
2013-02-22 18:51:00,34.0,26.5,29.28,South,180,0.7,0.7,74,0.00,,,0.00,WUHU21623XXSP,2013-02-22 23:51:00,
2013-02-22 18:56:00,33.8,26.3,29.28,South,180,0.0,0.7,74,0.00,,,0.00,WUHU21623XXSP,2013-02-22 23:56:00,
2013-02-22 19:01:00,33.6,26.4,29.28,SSE,157,0.0,0.0,75,0.00,,,0.00,WUHU21623XXSP,2013-02-23 00:01:00,
2013-02-22 19:06:00,33.8,26.6,29.28,SSW,202,0.0,0.0,75,0.00,,,0.00,WUHU21623XXSP,2013-02-23 00:06:00,
2013-02-22 19:11:00,33.8,26.9,29.28,SSE,157,0.0,0.0,76,0.00,,,0.00,WUHU21623XXSP,2013-02-23 00:11:00,
2013-02-22 19:16:00,33.6,26.8,29.29,South,180,0.0,0.0,76,0.00,,,0.00,WUHU21623XXSP,2013-02-23 00:16:00,
2013-02-22 19:21:00,33.6,26.8,29.29,SSE,157,0.0,0.0,76,0.00,,,0.00,WUHU21623XXSP,2013-02-23 00:21:00,
2013-02-22 19:26:00,33.4,26.9,29.29,SSW,202,0.0,0.0,77,0.00,,,0.00,WUHU21623XXSP,2013-02-23 00:26:00,
2013-02-22 19:31:00,33.4,26.9,29.29,WSW,247,0.0,0.0,77,0.00,,,0.00,WUHU21623XXSP,2013-02-23 00:31:00,
2013-02-22 19:36:00,33.4,26.9,29.29,SSW,202,0.0,0.0,77,0.00,,,0.00,WUHU21623XXSP,2013-02-23 00:36:00,
2013-02-22 19:41:00,33.4,27.2,29.29,SSW,202,0.0,0.0,78,0.00,,,0.00,WUHU21623XXSP,2013-02-23 00:41:00,
2013-02-22 19:46:00,33.4,27.2,29.29,SSW,202,0.0,0.0,78,0.00,,,0.00,WUHU21623XXSP,2013-02-23 00:46:00,
2013-02-22 19:51:00,33.4,27.6,29.29,SSW,202,0.0,0.0,79,0.00,,,0.00,WUHU21623XXSP,2013-02-23 00:51:00,
2013-02-22 19:56:00,33.4,27.6,29.28,SW,225,0.0,2.0,79,0.00,,,0.00,WUHU21623XXSP,2013-02-23 00:56:00,
2013-02-22 20:01:00,33.4,27.6,29.28,SSW,202,0.0,2.0,79,0.00,,,0.00,WUHU21623XXSP,2013-02-23 01:01:00,
2013-02-22 20:06:00,33.4,27.9,29.28,SSW,202,0.0,0.0,80,0.00,,,0.00,WUHU21623XXSP,2013-02-23 01:06:00,
2013-02-22 20:11:00,33.4,27.9,29.28,SW,225,0.0,0.0,80,0.00,,,0.00,WUHU21623XXSP,2013-02-23 01:11:00,
2013-02-22 20:16:00,33.4,27.9,29.28,SSW,202,0.0,0.0,80,0.00,,,0.00,WUHU21623XXSP,2013-02-23 01:16:00,
2013-02-22 20:21:00,33.4,28.2,29.28,SW,225,0.0,0.0,81,0.00,,,0.00,WUHU21623XXSP,2013-02-23 01:21:00,
2013-02-22 20:26:00,33.4,28.2,29.28,SW,225,0.0,0.0,81,0.00,,,0.00,WUHU21623XXSP,2013-02-23 01:26:00,
2013-02-22 20:31:00,33.4,28.2,29.28,SSW,202,0.0,0.0,81,0.00,,,0.00,WUHU21623XXSP,2013-02-23 01:31:00,
2013-02-22 20:36:00,33.4,28.5,29.28,SSW,202,0.0,0.0,82,0.00,,,0.00,WUHU21623XXSP,2013-02-23 01:36:00,
2013-02-22 20:41:00,33.4,28.5,29.28,SSW,202,0.0,0.0,82,0.00,,,0.00,WUHU21623XXSP,2013-02-23 01:41:00,
2013-02-22 20:46:00,33.4,28.5,29.28,SSW,202,0.0,0.0,82,0.00,,,0.00,WUHU21623XXSP,2013-02-23 01:46:00,
2013-02-22 20:51:00,33.6,28.6,29.28,SW,225,0.0,0.0,82,0.00,,,0.00,WUHU21623XXSP,2013-02-23 01:51:00,
2013-02-22 20:56:00,33.4,28.8,29.28,SSW,202,0.0,0.0,83,0.00,,,0.00,WUHU21623XXSP,2013-02-23 01:56:00,
2013-02-22 21:01:00,33.6,28.9,29.28,SSW,202,0.0,0.0,83,0.00,,,0.00,WUHU21623XXSP,2013-02-23 02:01:00,
2013-02-22 21:06:00,33.8,29.1,29.27,South,180,0.7,1.1,83,0.00,,,0.00,WUHU21623XXSP,2013-02-23 02:06:00,
2013-02-22 21:11:00,33.8,29.1,29.28,SSW,202,0.0,1.1,83,0.00,,,0.00,WUHU21623XXSP,2013-02-23 02:11:00,
2013-02-22 21:16:00,33.8,29.4,29.28,WSW,247,0.0,0.0,84,0.00,,,0.00,WUHU21623XXSP,2013-02-23 02:16:00,
2013-02-22 21:21:00,34.0,29.6,29.28,SSW,202,0.0,0.0,84,0.00,,,0.00,WUHU21623XXSP,2013-02-23 02:21:00,
2013-02-22 21:26:00,33.8,29.4,29.28,SW,225,0.0,0.0,84,0.00,,,0.00,WUHU21623XXSP,2013-02-23 02:26:00,
2013-02-22 21:31:00,34.0,29.6,29.28,SW,225,0.0,0.0,84,0.00,,,0.00,WUHU21623XXSP,2013-02-23 02:31:00,
2013-02-22 21:36:00,34.0,29.6,29.28,SSW,202,0.0,0.0,84,0.00,,,0.00,WUHU21623XXSP,2013-02-23 02:36:00,
2013-02-22 21:41:00,34.0,29.8,29.28,SW,225,1.3,1.3,85,0.00,,,0.00,WUHU21623XXSP,2013-02-23 02:41:00,
2013-02-22 21:46:00,34.0,29.8,29.28,SSW,202,0.0,1.3,85,0.00,,,0.00,WUHU21623XXSP,2013-02-23 02:46:00,
2013-02-22 21:51:00,34.0,29.8,29.28,SW,225,0.0,0.0,85,0.00,,,0.00,WUHU21623XXSP,2013-02-23 02:51:00,
2013-02-22 21:56:00,34.0,29.8,29.28,SSW,202,1.1,1.1,85,0.00,,,0.00,WUHU21623XXSP,2013-02-23 02:56:00,
2013-02-22 22:01:00,34.0,29.8,29.27,SSW,202,3.6,3.6,85,0.00,,,0.00,WUHU21623XXSP,2013-02-23 03:01:00,
2013-02-22 22:06:00,34.2,30.0,29.27,SW,225,0.0,3.6,85,0.00,,,0.00,WUHU21623XXSP,2013-02-23 03:06:00,
2013-02-22 22:11:00,34.2,30.0,29.27,SSW,202,6.3,6.3,85,0.00,,,0.00,WUHU21623XXSP,2013-02-23 03:11:00,
2013-02-22 22:16:00,34.0,29.8,29.28,SSW,202,1.1,6.3,85,0.00,,,0.00,WUHU21623XXSP,2013-02-23 03:16:00,
2013-02-22 22:21:00,34.0,30.1,29.28,SSW,202,0.0,4.7,86,0.00,,,0.00,WUHU21623XXSP,2013-02-23 03:21:00,
2013-02-22 22:26:00,34.2,30.3,29.28,SW,225,0.0,4.7,86,0.00,,,0.00,WUHU21623XXSP,2013-02-23 03:26:00,
2013-02-22 22:31:00,34.2,30.3,29.28,SW,225,0.0,3.4,86,0.00,,,0.00,WUHU21623XXSP,2013-02-23 03:31:00,
2013-02-22 22:36:00,34.2,30.3,29.28,SSW,202,0.0,1.8,86,0.00,,,0.00,WUHU21623XXSP,2013-02-23 03:36:00,
2013-02-22 22:41:00,34.2,30.3,29.28,SSW,202,2.0,2.0,86,0.00,,,0.00,WUHU21623XXSP,2013-02-23 03:41:00,
2013-02-22 22:46:00,34.2,30.3,29.28,SSW,202,4.9,4.9,86,0.00,,,0.00,WUHU21623XXSP,2013-02-23 03:46:00,
2013-02-22 22:51:00,34.2,30.3,29.27,SSW,202,1.8,4.9,86,0.00,,,0.00,WUHU21623XXSP,2013-02-23 03:51:00,
2013-02-22 22:56:00,34.3,30.2,29.28,SSW,202,0.0,4.0,85,0.00,,,0.00,WUHU21623XXSP,2013-02-23 03:56:00,
2013-02-22 23:01:00,34.2,30.0,29.27,South,180,1.3,4.0,85,0.00,,,0.00,WUHU21623XXSP,2013-02-23 04:01:00,
2013-02-22 23:06:00,34.3,30.2,29.27,South,180,6.7,6.7,85,0.00,,,0.00,WUHU21623XXSP,2013-02-23 04:06:00,
2013-02-22 23:11:00,34.3,30.2,29.27,SW,225,4.3,6.7,85,0.00,,,0.00,WUHU21623XXSP,2013-02-23 04:11:00,
2013-02-22 23:16:00,34.2,30.0,29.27,SW,225,5.4,5.4,85,0.00,,,0.00,WUHU21623XXSP,2013-02-23 04:16:00,
2013-02-22 23:21:00,34.2,30.0,29.27,WSW,247,6.5,6.5,85,0.00,,,0.00,WUHU21623XXSP,2013-02-23 04:21:00,
2013-02-22 23:26:00,34.2,30.0,29.27,SSW,202,4.9,9.8,85,0.00,,,0.00,WUHU21623XXSP,2013-02-23 04:26:00,
2013-02-22 23:31:00,34.2,29.7,29.27,SW,225,6.9,9.8,84,0.00,,,0.00,WUHU21623XXSP,2013-02-23 04:31:00,
2013-02-22 23:36:00,34.2,29.7,29.27,SW,225,5.4,6.9,84,0.00,,,0.00,WUHU21623XXSP,2013-02-23 04:36:00,
2013-02-22 23:41:00,34.2,29.7,29.27,SW,225,4.3,7.6,84,0.00,,,0.00,WUHU21623XXSP,2013-02-23 04:41:00,
2013-02-22 23:46:00,34.2,29.7,29.27,SW,225,3.4,7.6,84,0.00,,,0.00,WUHU21623XXSP,2013-02-23 04:46:00,
2013-02-22 23:51:00,34.2,29.7,29.27,SW,225,5.4,5.6,84,0.00,,,0.00,WUHU21623XXSP,2013-02-23 04:51:00,
2013-02-22 23:56:00,34.0,29.3,29.27,SW,225,2.7,7.4,83,0.00,,,0.00,WUHU21623XXSP,2013-02-23 04:56:00,